Terminal Aerodrome Forecast
Issued by NWS Sterling, VA

Current Version | Previous Version | Graphics & Text | Print | Product List | Glossary On
Versions: 1 2 3 4 5 6 7 8 9 10 11 12 13 14 15 16 17 18 19 20 21 22 23
000
FTUS41 KLWX 180900 AAA
TAFIAD
TAF AMD
KIAD 180907Z 1809/1912 VRB03KT P6SM BKN025
     FM181300 VRB03KT P6SM BKN080
     FM181900 13007KT P6SM BKN250
     FM190400 VRB03KT P6SM BKN250=

USA.gov is the U.S. government's official web portal to all federal, state and local government web resources and services.